createdAt,value
2023-04-15T00:00:22.053Z,9.071429
2023-04-15T00:05:24.555Z,13.000000
2023-04-15T00:10:27.011Z,11.400000
2023-04-15T00:15:28.911Z,7.000000
2023-04-15T00:20:31.295Z,7.000000
2023-04-15T00:25:33.716Z,7.000000
2023-04-15T00:30:15.946Z,7.000000
2023-04-15T00:35:18.326Z,7.000000
2023-04-15T00:40:20.271Z,7.533333
2023-04-15T00:45:22.605Z,9.000000
2023-04-15T00:50:24.900Z,9.000000
2023-04-15T00:55:27.007Z,9.000000
2023-04-15T01:00:29.237Z,8.733333
2023-04-15T01:05:31.304Z,8.000000
2023-04-15T01:10:33.755Z,8.000000
2023-04-15T01:15:16.008Z,8.000000
2023-04-15T01:20:19.094Z,8.000000
2023-04-15T01:25:21.191Z,8.000000
2023-04-15T01:30:23.218Z,8.000000
2023-04-15T01:35:25.200Z,8.000000
2023-04-15T01:40:27.597Z,9.333333
2023-04-15T01:45:30.115Z,13.000000
2023-04-15T01:50:32.868Z,11.666667
2023-04-15T01:55:34.697Z,8.000000
2023-04-15T02:00:16.669Z,8.533333
2023-04-15T02:05:18.743Z,10.000000
2023-04-15T02:10:20.905Z,8.666667
2023-04-15T02:15:22.808Z,5.000000
2023-04-15T02:20:24.946Z,5.533333
2023-04-15T02:25:27.396Z,7.000000
2023-04-15T02:30:29.566Z,7.266667
2023-04-15T02:35:31.736Z,8.000000
2023-04-15T02:40:34.263Z,7.733333
2023-04-15T02:45:15.932Z,7.000000
2023-04-15T02:50:18.376Z,7.000000
2023-04-15T02:55:20.673Z,7.000000
2023-04-15T03:00:22.909Z,7.000000
2023-04-15T03:05:25.089Z,7.000000
2023-04-15T03:10:27.663Z,6.466667
2023-04-15T03:15:29.735Z,5.000000
2023-04-15T03:20:31.934Z,5.800000
2023-04-15T03:25:34.687Z,8.000000
2023-04-15T03:30:16.790Z,7.733333
2023-04-15T03:35:18.971Z,7.000000
2023-04-15T03:40:21.427Z,6.466667
2023-04-15T03:45:23.721Z,5.000000
2023-04-15T03:50:26.105Z,5.000000
2023-04-15T03:55:28.060Z,5.000000
2023-04-15T04:00:30.376Z,5.800000
2023-04-15T04:05:32.529Z,8.000000
2023-04-15T04:10:34.704Z,8.266667
2023-04-15T04:15:17.097Z,9.000000
2023-04-15T04:20:19.912Z,9.266667
2023-04-15T04:25:22.226Z,10.000000
2023-04-15T04:30:24.105Z,11.066667
2023-04-15T04:35:26.352Z,14.000000
2023-04-15T04:40:28.605Z,13.733333
2023-04-15T04:45:30.660Z,13.000000
2023-04-15T04:50:32.968Z,11.133333
2023-04-15T04:55:35.218Z,6.000000
2023-04-15T05:00:17.104Z,7.333333
2023-04-15T05:05:19.214Z,11.000000
2023-04-15T05:10:21.412Z,10.733333
2023-04-15T05:15:23.640Z,10.000000
2023-04-15T05:20:26.046Z,10.000000
2023-04-15T05:25:28.277Z,10.000000
2023-04-15T05:30:30.357Z,11.333333
2023-04-15T05:35:32.436Z,15.000000
2023-04-15T05:40:34.692Z,13.133333
2023-04-15T05:45:16.651Z,8.000000
2023-04-15T05:50:18.833Z,8.533333
2023-04-15T05:55:21.090Z,10.000000
2023-04-15T06:00:23.455Z,10.285714
2023-04-15T06:05:26.018Z,11.000000
2023-04-15T06:10:27.969Z,10.200000
2023-04-15T06:15:30.353Z,8.000000
2023-04-15T06:20:32.410Z,8.800000
2023-04-15T06:25:34.610Z,11.000000
2023-04-15T06:30:16.770Z,10.200000
2023-04-15T06:35:18.708Z,8.000000
2023-04-15T06:40:21.055Z,8.800000
2023-04-15T06:45:23.058Z,11.000000
2023-04-15T06:50:24.848Z,10.200000
2023-04-15T06:55:27.214Z,8.000000
2023-04-15T07:00:29.757Z,9.066667
2023-04-15T07:05:31.780Z,12.000000
2023-04-15T07:10:33.728Z,10.666667
2023-04-15T07:15:15.788Z,7.000000
2023-04-15T07:20:18.083Z,8.333333
2023-04-15T07:25:20.119Z,12.000000
2023-04-15T07:30:22.440Z,11.785714
2023-04-15T07:35:24.752Z,11.000000
2023-04-15T07:40:26.900Z,10.466667
2023-04-15T07:45:29.006Z,9.000000
2023-04-15T07:50:31.328Z,8.733333
2023-04-15T07:55:33.236Z,8.000000
2023-04-15T08:00:35.832Z,8.266667
2023-04-15T08:05:17.853Z,9.000000
2023-04-15T08:10:19.938Z,8.466667
2023-04-15T08:15:22.117Z,7.000000
2023-04-15T08:20:24.207Z,7.533333
2023-04-15T08:25:26.130Z,9.000000
2023-04-15T08:30:28.298Z,8.200000
2023-04-15T08:35:30.444Z,6.000000
2023-04-15T08:40:32.806Z,9.733333
2023-04-15T08:45:35.248Z,20.000000
2023-04-15T08:50:16.504Z,16.533333
2023-04-15T08:55:18.830Z,7.000000
2023-04-15T09:00:20.651Z,12.600000
2023-04-15T09:05:28.505Z,28.000000
2023-04-15T09:10:30.994Z,24.800000
2023-04-15T09:15:33.573Z,16.000000
2023-04-15T09:20:15.946Z,13.866667
2023-04-15T09:25:18.737Z,8.000000
2023-04-15T09:30:21.918Z,7.733333
2023-04-15T09:35:24.168Z,7.000000
2023-04-15T09:40:27.262Z,8.333333
2023-04-15T09:45:30.213Z,12.000000
2023-04-15T09:50:32.954Z,11.200000
2023-04-15T09:55:15.790Z,9.000000
2023-04-15T10:00:18.471Z,9.533333
2023-04-15T10:05:21.414Z,11.000000
2023-04-15T10:10:24.016Z,10.714286
2023-04-15T10:15:27.841Z,10.000000
2023-04-15T10:20:29.638Z,9.466667
2023-04-15T10:25:32.591Z,8.000000
2023-04-15T10:30:35.797Z,8.000000
2023-04-15T10:35:17.926Z,8.000000
2023-04-15T10:40:20.697Z,8.533333
2023-04-15T10:45:22.955Z,10.000000
2023-04-15T10:50:25.819Z,9.733333
2023-04-15T10:55:28.850Z,9.000000
2023-04-15T11:00:31.818Z,9.000000
2023-04-15T11:05:34.462Z,9.000000
2023-04-15T11:10:16.850Z,9.266667
2023-04-15T11:15:19.944Z,10.000000
2023-04-15T11:20:22.774Z,9.785714
2023-04-15T11:25:25.617Z,9.000000
2023-04-15T11:30:29.313Z,9.533333
2023-04-15T11:35:32.191Z,11.000000
2023-04-15T11:40:35.963Z,10.200000
2023-04-15T11:45:18.125Z,8.000000
2023-04-15T11:50:21.505Z,8.533333
2023-04-15T11:55:24.047Z,10.000000
2023-04-15T12:00:27.477Z,10.000000
2023-04-15T12:05:30.878Z,10.000000
2023-04-15T12:10:33.192Z,9.200000
2023-04-15T12:15:16.711Z,7.000000
2023-04-15T12:20:18.533Z,7.266667
2023-04-15T12:25:20.962Z,8.000000
2023-04-15T12:30:24.268Z,8.000000
2023-04-15T12:35:26.719Z,8.000000
2023-04-15T12:40:29.483Z,8.000000
2023-04-15T12:45:32.126Z,8.000000
2023-04-15T12:50:35.910Z,8.000000
2023-04-15T12:55:17.845Z,8.000000
2023-04-15T13:00:21.209Z,8.000000
2023-04-15T13:05:24.090Z,8.000000
2023-04-15T13:10:26.561Z,8.800000
2023-04-15T13:15:29.570Z,11.000000
2023-04-15T13:20:32.380Z,10.733333
2023-04-15T13:25:35.195Z,10.000000
2023-04-15T13:30:17.441Z,10.000000
2023-04-15T13:35:21.036Z,10.000000
2023-04-15T13:40:24.522Z,10.000000
2023-04-15T13:45:27.120Z,10.000000
2023-04-15T13:50:30.122Z,10.000000
2023-04-15T13:55:33.035Z,10.000000
2023-04-15T14:00:35.936Z,11.066667
2023-04-15T14:05:18.691Z,14.000000
2023-04-15T14:10:22.023Z,12.133333
2023-04-15T14:15:24.690Z,7.000000
2023-04-15T14:20:28.198Z,8.066667
2023-04-15T14:25:34.014Z,11.000000
2023-04-15T14:30:33.235Z,10.466667
2023-04-15T14:35:35.770Z,9.000000
2023-04-15T14:40:17.908Z,8.466667
2023-04-15T14:45:21.147Z,7.000000
2023-04-15T14:50:23.965Z,7.571429
2023-04-15T14:55:26.834Z,9.000000
2023-04-15T15:00:30.688Z,9.266667
2023-04-15T15:05:32.867Z,10.000000
2023-04-15T15:10:46.561Z,9.466667
2023-04-15T15:15:28.510Z,8.000000
2023-04-15T15:20:20.860Z,8.000000
2023-04-15T15:25:23.214Z,8.000000
2023-04-15T15:30:26.712Z,7.200000
2023-04-15T15:35:29.261Z,5.000000
2023-04-15T15:40:32.358Z,6.333333
2023-04-15T15:45:36.478Z,10.000000
2023-04-15T15:50:18.049Z,9.466667
2023-04-15T15:55:20.977Z,8.000000
2023-04-15T16:00:23.593Z,9.071429
2023-04-15T16:05:25.999Z,13.000000
2023-04-15T16:10:29.539Z,11.400000
2023-04-15T16:15:31.907Z,7.000000
2023-04-15T16:20:35.453Z,7.800000
2023-04-15T16:25:17.984Z,10.000000
2023-04-15T16:30:22.136Z,9.200000
2023-04-15T16:35:23.280Z,7.000000
2023-04-15T16:40:25.952Z,7.266667
2023-04-15T16:45:29.131Z,8.000000
2023-04-15T16:50:32.211Z,8.000000
2023-04-15T16:55:35.113Z,8.000000
2023-04-15T17:00:16.968Z,8.266667
2023-04-15T17:05:20.127Z,9.000000
2023-04-15T17:10:22.991Z,9.000000
2023-04-15T17:15:27.436Z,9.000000
2023-04-15T17:20:29.348Z,8.733333
2023-04-15T17:25:32.261Z,8.000000
2023-04-15T17:30:34.748Z,8.266667
2023-04-15T17:35:17.619Z,9.000000
2023-04-15T17:40:21.142Z,8.733333
2023-04-15T17:45:23.542Z,8.000000
2023-04-15T17:50:26.036Z,8.266667
2023-04-15T17:55:30.359Z,9.000000
2023-04-15T18:00:32.687Z,9.266667
2023-04-15T18:05:36.254Z,10.000000
2023-04-15T18:10:18.876Z,9.466667
2023-04-15T18:15:21.810Z,8.000000
2023-04-15T18:20:25.074Z,8.285714
2023-04-15T18:25:27.709Z,9.000000
2023-04-15T18:30:30.259Z,8.466667
2023-04-15T18:35:32.712Z,7.000000
2023-04-15T18:40:35.073Z,6.733333
2023-04-15T18:45:17.766Z,6.000000
2023-04-15T18:50:21.079Z,6.533333
2023-04-15T18:55:23.788Z,8.000000
2023-04-15T19:00:26.338Z,8.000000
2023-04-15T19:05:29.059Z,8.000000
2023-04-15T19:10:31.798Z,8.000000
2023-04-15T19:15:35.279Z,8.000000
2023-04-15T19:20:17.917Z,8.750000
2023-04-15T19:25:21.007Z,11.000000
2023-04-15T19:30:24.337Z,10.428571
2023-04-15T19:35:26.844Z,9.000000
2023-04-15T19:40:29.572Z,9.000000
2023-04-15T19:45:31.983Z,9.000000
2023-04-15T19:50:34.756Z,9.000000
2023-04-15T19:55:17.086Z,9.000000
2023-04-15T20:00:19.864Z,9.266667
2023-04-15T20:05:22.680Z,10.000000
2023-04-15T20:10:25.212Z,9.466667
2023-04-15T20:15:27.754Z,8.000000
2023-04-15T20:20:31.309Z,8.000000
2023-04-15T20:25:34.587Z,8.000000
2023-04-15T20:30:17.016Z,8.000000
2023-04-15T20:35:19.679Z,8.000000
2023-04-15T20:40:22.244Z,9.071429
2023-04-15T20:45:24.877Z,13.000000
2023-04-15T20:50:27.531Z,11.933333
2023-04-15T20:55:30.805Z,9.000000
2023-04-15T21:00:32.548Z,8.733333
2023-04-15T21:05:36.065Z,8.000000
2023-04-15T21:10:18.124Z,8.266667
2023-04-15T21:15:21.234Z,9.000000
2023-04-15T21:20:23.767Z,8.428571
2023-04-15T21:25:26.685Z,7.000000
2023-04-15T21:30:29.380Z,7.000000
2023-04-15T21:35:32.565Z,7.000000
2023-04-15T21:40:35.670Z,6.733333
2023-04-15T21:45:17.902Z,6.000000
2023-04-15T21:50:20.958Z,6.266667
2023-04-15T21:55:23.722Z,7.000000
2023-04-15T22:00:26.275Z,6.733333
2023-04-15T22:05:29.012Z,6.000000
2023-04-15T22:10:32.511Z,6.000000
2023-04-15T22:15:35.672Z,6.000000
2023-04-15T22:20:19.719Z,6.000000
2023-04-15T22:25:23.420Z,6.000000
2023-04-15T22:30:25.044Z,6.533333
2023-04-15T22:35:28.069Z,8.000000
2023-04-15T22:40:30.191Z,7.733333
2023-04-15T22:45:33.232Z,7.000000
2023-04-15T22:50:35.977Z,7.000000
2023-04-15T22:55:18.615Z,7.000000
2023-04-15T23:00:21.184Z,7.533333
2023-04-15T23:05:24.327Z,9.000000
2023-04-15T23:10:27.167Z,8.466667
2023-04-15T23:15:30.199Z,7.000000
2023-04-15T23:20:33.246Z,7.000000
2023-04-15T23:25:35.852Z,7.000000
2023-04-15T23:30:18.116Z,6.733333
2023-04-15T23:35:20.410Z,6.000000
2023-04-15T23:40:23.292Z,6.571429
2023-04-15T23:45:25.915Z,8.000000
2023-04-15T23:50:28.782Z,7.733333
2023-04-15T23:55:32.025Z,7.000000
